Lionville, Pennsylvania
Current Conditions -  °F | °C
As of 8:35 AM on Thursday 30 Oct 2014 (Local Time) from KMQS Reporting Station
Clear Clear  
Wind Chill: 40°   Ceiling: Unl
Heat Index: 45°   Visibility: 10mi
Dew Point: 41°   Wind: 8mph
Humidity: 87%   Direction: 330°NNW
Pressure: 30.03"   Gusts: NA
Location:  40.05°N, 75.66°W
Report Text: KMQS 301235Z AUTO 33007KT 10SM CLR 07/05 A3003 RMK AO2
Loading
Personal Weather Stations






























Interactive Weather Map
Tropical Storm Tracking
New forecast layout! Learn more

10-Day Weather Forecast

Advertisements
Track Severe Weather on mobile